Time;durP1;ratioP1;P1;durP2;ratioP2;P2;SDS_P1;SDS_P2;PMS_P1;PMS_P2;Temp;Humidity;BMP_temperature;BMP_pressure;BME280_temperature;BME280_humidity;BME280_pressure;Samples;Min_cycle;Max_cycle;Signal;HPM_P1;HPM_P2
2022/06/17 00:01:19;;;;;;;1.88;1.20;;;13.30;99.90;;;;;;4950898;29;20047;-91
2022/06/17 00:03:45;;;;;;;2.80;1.90;;;13.30;99.90;;;;;;4942369;29;20205;-91
2022/06/17 00:06:12;;;;;;;4.68;2.67;;;13.30;99.90;;;;;;4953021;29;20090;-92
2022/06/17 00:08:43;;;;;;;3.58;2.78;;;13.20;99.90;;;;;;4949028;29;20548;-92
2022/06/17 00:11:15;;;;;;;3.03;2.42;;;13.10;99.90;;;;;;4946520;29;20043;-91
2022/06/17 00:13:41;;;;;;;5.40;2.88;;;13.20;99.90;;;;;;4954898;29;20118;-90
2022/06/17 00:16:15;;;;;;;4.30;2.50;;;13.10;99.90;;;;;;4953487;29;20492;-92
2022/06/17 00:18:42;;;;;;;3.58;2.20;;;13.20;99.90;;;;;;4942941;29;20503;-90
2022/06/17 00:21:26;;;;;;;4.18;2.63;;;13.10;99.90;;;;;;4972175;29;20044;-89
2022/06/17 00:23:53;;;;;;;4.32;2.83;;;13.10;99.90;;;;;;4964411;29;20058;-90
2022/06/17 00:26:19;;;;;;;3.75;2.65;;;13.10;99.90;;;;;;4951677;29;20054;-90
2022/06/17 00:28:45;;;;;;;3.47;2.70;;;12.90;99.90;;;;;;4944336;29;20039;-87
2022/06/17 00:31:11;;;;;;;5.38;3.10;;;13.80;99.90;;;;;;4946866;29;20043;-94
2022/06/17 00:33:36;;;;;;;9.90;3.80;;;13.00;99.90;;;;;;4954258;29;20525;-89
2022/06/17 00:36:03;;;;;;;7.10;3.60;;;12.90;99.90;;;;;;4936822;29;20054;-91
2022/06/17 00:38:32;;;;;;;4.80;3.67;;;12.90;99.90;;;;;;4943758;29;20062;-91
2022/06/17 00:41:06;;;;;;;5.88;3.33;;;12.90;99.90;;;;;;4949820;29;20150;-92
2022/06/17 00:43:35;;;;;;;7.15;4.30;;;12.90;99.90;;;;;;4946869;29;20114;-92
2022/06/17 00:46:14;;;;;;;7.32;4.35;;;12.90;99.90;;;;;;4951385;29;20075;-92
2022/06/17 00:48:48;;;;;;;7.20;4.00;;;13.70;99.90;;;;;;4960733;29;20416;-91
2022/06/17 00:51:23;;;;;;;6.35;3.90;;;12.80;99.90;;;;;;4953817;29;20456;-87
2022/06/17 00:53:51;;;;;;;5.53;4.10;;;13.10;99.90;;;;;;4955786;29;20051;-92
2022/06/17 00:56:24;;;;;;;4.70;3.30;;;12.70;99.90;;;;;;4950268;29;20496;-89
2022/06/17 00:58:53;;;;;;;3.92;2.67;;;12.80;99.90;;;;;;4940203;29;20579;-92
2022/06/17 01:01:20;;;;;;;4.82;2.83;;;12.80;99.90;;;;;;4957165;29;20515;-91
2022/06/17 01:03:54;;;;;;;5.00;2.90;;;12.90;99.90;;;;;;4953260;29;20114;-91
2022/06/17 01:06:24;;;;;;;6.88;3.85;;;12.80;99.90;;;;;;4936898;29;20032;-91
2022/06/17 01:11:50;;;;;;;5.72;4.18;;;12.80;99.90;;;;;;4954272;29;20050;-90
2022/06/17 01:14:19;;;;;;;5.50;4.00;;;13.30;99.90;;;;;;4953042;29;20031;-91
2022/06/17 01:16:47;;;;;;;5.43;3.65;;;12.70;99.90;;;;;;4950413;29;20580;-90
2022/06/17 01:19:42;;;;;;;4.85;3.17;;;13.00;99.90;;;;;;4957177;29;20050;-89
2022/06/17 01:22:19;;;;;;;6.20;3.97;;;12.80;99.90;;;;;;4951778;29;20053;-92
2022/06/17 01:24:47;;;;;;;7.18;3.88;;;12.80;99.90;;;;;;4949942;29;20435;-92
2022/06/17 01:27:17;;;;;;;6.45;4.28;;;12.70;99.90;;;;;;4938182;29;20130;-91
2022/06/17 01:29:43;;;;;;;5.93;4.30;;;12.70;99.90;;;;;;4953468;29;20073;-91
2022/06/17 01:32:10;;;;;;;7.10;3.72;;;12.70;99.90;;;;;;4945593;28;20100;-89
2022/06/17 01:34:36;;;;;;;7.35;4.22;;;12.70;99.90;;;;;;4946224;29;20051;-92
2022/06/17 01:37:02;;;;;;;6.45;4.55;;;12.70;99.90;;;;;;4955651;29;20039;-92
2022/06/17 01:39:27;;;;;;;6.72;5.10;;;12.70;99.90;;;;;;4948891;29;20043;-89
2022/06/17 01:41:53;;;;;;;6.00;4.63;;;12.70;99.90;;;;;;4939178;29;20045;-91
2022/06/17 01:44:22;;;;;;;6.43;5.00;;;12.60;99.90;;;;;;4952942;29;20039;-92
2022/06/17 01:46:52;;;;;;;4.88;3.33;;;12.60;99.90;;;;;;4953968;29;20063;-91
2022/06/17 01:49:26;;;;;;;5.60;3.78;;;12.60;99.90;;;;;;4938826;29;20051;-90
2022/06/17 01:52:07;;;;;;;5.55;3.72;;;12.60;99.90;;;;;;4951651;29;20083;-92
2022/06/17 01:54:40;;;;;;;5.88;3.63;;;12.60;99.90;;;;;;4949997;29;20053;-92
2022/06/17 01:57:09;;;;;;;7.63;4.63;;;12.60;99.90;;;;;;4940981;29;20061;-93
2022/06/17 01:59:45;;;;;;;7.07;4.60;;;12.60;99.90;;;;;;4958340;29;20408;-86
2022/06/17 02:02:13;;;;;;;6.93;4.45;;;13.00;99.90;;;;;;4945136;29;20044;-89
2022/06/17 02:04:44;;;;;;;7.43;4.60;;;13.10;99.90;;;;;;4937442;29;20103;-90
2022/06/17 02:07:17;;;;;;;5.95;4.43;;;12.50;99.90;;;;;;4940167;29;20049;-91
2022/06/17 02:09:44;;;;;;;7.03;4.30;;;12.50;99.90;;;;;;4938131;29;20063;-89
2022/06/17 02:12:10;;;;;;;5.35;3.78;;;12.50;99.90;;;;;;4939836;29;20118;-92
2022/06/17 02:14:36;;;;;;;7.28;4.05;;;12.50;99.90;;;;;;4949674;29;20099;-88
2022/06/17 02:17:03;;;;;;;6.32;3.95;;;12.50;99.90;;;;;;4961495;29;20047;-86
2022/06/17 02:19:34;;;;;;;5.10;3.67;;;12.50;99.90;;;;;;4961547;28;20043;-90
2022/06/17 02:22:10;;;;;;;6.63;4.45;;;12.50;99.90;;;;;;4952821;29;20100;-86
2022/06/17 02:24:38;;;;;;;6.05;4.38;;;12.50;99.90;;;;;;4946139;29;20047;-88
2022/06/17 02:27:07;;;;;;;7.57;4.68;;;12.70;99.90;;;;;;4958736;28;20051;-92
2022/06/17 02:29:35;;;;;;;6.63;4.88;;;12.60;99.90;;;;;;4940418;29;20043;-91
2022/06/17 02:32:05;;;;;;;8.23;4.78;;;12.50;99.90;;;;;;4946632;29;20066;-90
2022/06/17 02:34:59;;;;;;;5.53;3.95;;;12.40;99.90;;;;;;4956976;28;20504;-92
2022/06/17 02:37:26;;;;;;;6.80;5.00;;;12.30;99.90;;;;;;4951947;29;20075;-91
2022/06/17 02:39:54;;;;;;;6.45;4.53;;;12.40;99.90;;;;;;4945133;29;20548;-93
2022/06/17 02:42:30;;;;;;;6.85;4.93;;;12.40;99.90;;;;;;4945788;29;20048;-92
2022/06/17 02:45:00;;;;;;;7.30;4.80;;;12.20;99.90;;;;;;4948562;29;20039;-91
2022/06/17 02:47:26;;;;;;;9.35;4.72;;;12.40;99.90;;;;;;4961149;29;20058;-90
2022/06/17 02:49:53;;;;;;;8.20;4.97;;;12.30;99.90;;;;;;4965282;29;20047;-91
2022/06/17 02:52:26;;;;;;;8.25;5.28;;;12.30;99.90;;;;;;4954615;29;20051;-92
2022/06/17 02:54:56;;;;;;;6.03;4.75;;;11.40;99.90;;;;;;4946145;29;20055;-93
2022/06/17 02:57:25;;;;;;;8.82;5.25;;;12.40;99.90;;;;;;4939177;29;20082;-91
2022/06/17 03:00:04;;;;;;;7.03;4.63;;;12.40;99.90;;;;;;4948805;29;20485;-91
2022/06/17 03:02:36;;;;;;;8.25;5.10;;;12.30;99.90;;;;;;4963286;29;20087;-88
2022/06/17 03:05:05;;;;;;;6.82;4.97;;;12.30;99.90;;;;;;4961792;28;20051;-91
2022/06/17 03:07:31;;;;;;;7.40;4.90;;;12.30;99.90;;;;;;4959090;29;20043;-92
2022/06/17 03:09:58;;;;;;;8.43;6.20;;;12.30;99.90;;;;;;4950535;29;20080;-92
2022/06/17 03:12:27;;;;;;;9.27;5.20;;;12.30;99.90;;;;;;4955667;28;20031;-90
2022/06/17 03:15:09;;;;;;;6.25;4.93;;;12.30;99.90;;;;;;4944361;29;20050;-90
2022/06/17 03:17:41;;;;;;;8.82;5.07;;;12.20;99.90;;;;;;4952601;29;20043;-87
2022/06/17 03:20:11;;;;;;;9.05;5.07;;;12.40;99.90;;;;;;4948025;29;20592;-92
2022/06/17 03:22:38;;;;;;;7.72;4.88;;;12.30;99.90;;;;;;4947526;28;20055;-92
2022/06/17 03:25:21;;;;;;;5.80;3.75;;;12.30;99.90;;;;;;4951837;29;20500;-93
2022/06/17 03:27:48;;;;;;;6.22;4.57;;;12.30;99.90;;;;;;4945762;29;20461;-92
2022/06/17 03:30:38;;;;;;;4.95;3.83;;;13.30;99.90;;;;;;4958177;29;20046;-92
2022/06/17 03:40:39;;;;;;;5.72;4.00;;;12.50;99.90;;;;;;4948843;29;20566;-92
2022/06/17 03:43:16;;;;;;;4.82;3.40;;;12.60;99.90;;;;;;4957564;29;20055;-88
2022/06/17 03:45:47;;;;;;;4.53;2.88;;;12.70;99.90;;;;;;4958007;29;20081;-91
2022/06/17 03:48:25;;;;;;;4.60;2.78;;;12.60;99.90;;;;;;4958272;29;20047;-91
2022/06/17 03:50:51;;;;;;;4.38;2.92;;;13.00;99.90;;;;;;4931577;29;20047;-91
2022/06/17 03:53:31;;;;;;;5.32;3.30;;;13.60;99.90;;;;;;4955732;29;20423;-92
2022/06/17 03:56:11;;;;;;;4.93;3.50;;;12.70;99.90;;;;;;4949189;29;20055;-91
2022/06/17 03:58:39;;;;;;;6.30;3.25;;;12.70;99.90;;;;;;4931110;29;20046;-92
2022/06/17 04:01:16;;;;;;;5.15;2.85;;;12.70;99.90;;;;;;4937950;29;20051;-89
2022/06/17 04:03:53;;;;;;;3.58;2.65;;;12.80;99.90;;;;;;4947604;29;20046;-90
2022/06/17 04:06:24;;;;;;;3.20;2.20;;;12.90;99.90;;;;;;4954185;29;20051;-91
2022/06/17 04:09:00;;;;;;;4.75;2.85;;;12.90;99.90;;;;;;4947819;29;20039;-92
2022/06/17 04:11:35;;;;;;;3.00;2.50;;;13.00;99.90;;;;;;4953683;29;20054;-92
2022/06/17 04:14:05;;;;;;;4.60;3.25;;;13.10;99.90;;;;;;4955137;29;20043;-93
2022/06/17 04:16:43;;;;;;;4.13;2.70;;;13.10;99.90;;;;;;4955305;29;20039;-93
2022/06/17 04:19:16;;;;;;;3.78;2.67;;;13.20;99.90;;;;;;4938933;29;20051;-95
2022/06/17 04:21:42;;;;;;;3.67;2.58;;;13.30;99.90;;;;;;4954166;29;20049;-93
2022/06/17 04:24:13;;;;;;;3.08;2.17;;;13.30;99.90;;;;;;4938324;29;20362;-91
2022/06/17 04:26:42;;;;;;;3.88;2.72;;;13.40;99.90;;;;;;4955176;29;20054;-91
2022/06/17 04:29:19;;;;;;;5.30;2.60;;;13.50;99.90;;;;;;4955179;29;20110;-90
2022/06/17 04:31:53;;;;;;;2.88;2.22;;;13.50;99.90;;;;;;4938546;29;20059;-93
2022/06/17 04:34:19;;;;;;;4.72;2.40;;;14.00;99.90;;;;;;4946953;29;20051;-93
2022/06/17 04:36:50;;;;;;;3.15;2.22;;;13.60;99.90;;;;;;4946722;29;20040;-92
2022/06/17 04:39:38;;;;;;;4.53;2.30;;;13.70;99.90;;;;;;4943894;29;20043;-92
2022/06/17 04:42:07;;;;;;;3.85;1.85;;;13.80;99.90;;;;;;4944916;29;20048;-92
2022/06/17 04:44:32;;;;;;;2.58;2.03;;;13.30;99.90;;;;;;4963861;29;20192;-90
2022/06/17 04:47:06;;;;;;;4.05;1.98;;;13.90;99.90;;;;;;4962172;29;20052;-88
2022/06/17 04:49:35;;;;;;;2.50;1.80;;;14.10;99.90;;;;;;4955599;29;20432;-92
2022/06/17 04:52:07;;;;;;;3.05;1.13;;;14.10;99.90;;;;;;4946545;28;20044;-91
2022/06/17 04:54:36;;;;;;;2.42;1.33;;;14.20;99.90;;;;;;4942725;29;20122;-92
2022/06/17 04:57:03;;;;;;;1.98;1.33;;;14.30;99.90;;;;;;4936273;29;20074;-93
2022/06/17 04:59:31;;;;;;;1.10;0.82;;;14.40;99.90;;;;;;4953345;29;20042;-93
2022/06/17 05:01:58;;;;;;;2.40;1.25;;;14.40;99.90;;;;;;4953912;29;20052;-93
2022/06/17 05:05:11;;;;;;;1.60;1.30;;;14.30;99.90;;;;;;4937386;29;20046;-93
2022/06/17 05:07:45;;;;;;;2.47;1.25;;;14.60;99.90;;;;;;4950110;29;20050;-93
2022/06/17 05:10:32;;;;;;;3.08;1.20;;;14.60;99.90;;;;;;4955084;29;20039;-93
2022/06/17 05:13:15;;;;;;;4.10;1.15;;;14.60;99.90;;;;;;4953124;29;20051;-93
2022/06/17 05:15:40;;;;;;;2.70;1.10;;;14.60;99.90;;;;;;4949351;28;20050;-92
2022/06/17 05:18:06;;;;;;;3.58;1.10;;;14.70;99.90;;;;;;4950883;29;20043;-94
2022/06/17 05:20:32;;;;;;;1.60;0.90;;;14.70;99.90;;;;;;4954009;29;20079;-93
2022/06/17 05:23:02;;;;;;;2.97;1.23;;;14.70;99.90;;;;;;4953141;29;20043;-93
2022/06/17 05:25:37;;;;;;;1.80;1.30;;;14.80;99.90;;;;;;4953705;29;20044;-93
2022/06/17 05:28:06;;;;;;;1.48;1.17;;;14.80;99.90;;;;;;4945875;29;20471;-93
2022/06/17 05:30:37;;;;;;;2.45;1.02;;;14.80;99.90;;;;;;4952538;29;20481;-93
2022/06/17 05:33:02;;;;;;;1.48;0.93;;;14.90;99.90;;;;;;4953593;29;20088;-92
2022/06/17 05:35:28;;;;;;;3.35;1.40;;;14.90;99.90;;;;;;4936753;29;20454;-91
2022/06/17 05:37:54;;;;;;;1.58;0.85;;;14.90;99.90;;;;;;4951211;29;20035;-93
2022/06/17 05:40:20;;;;;;;1.58;0.85;;;15.40;99.90;;;;;;4949992;29;20039;-93
2022/06/17 05:42:47;;;;;;;1.35;0.80;;;15.10;99.90;;;;;;4951301;29;20047;-92
2022/06/17 05:45:16;;;;;;;1.15;0.80;;;15.10;99.90;;;;;;4958648;29;20042;-93
2022/06/17 05:47:42;;;;;;;3.78;1.02;;;15.10;99.90;;;;;;4941511;29;20043;-92
2022/06/17 05:50:10;;;;;;;1.77;1.00;;;15.20;99.90;;;;;;4951863;29;20058;-93
2022/06/17 05:52:52;;;;;;;2.30;1.08;;;15.40;99.90;;;;;;4975351;29;20042;-86
2022/06/17 05:55:19;;;;;;;2.20;1.08;;;15.40;99.90;;;;;;4970887;28;20039;-93
2022/06/17 05:57:45;;;;;;;2.28;1.27;;;15.50;99.90;;;;;;4962809;29;20079;-93
2022/06/17 06:00:11;;;;;;;2.08;1.23;;;15.60;99.90;;;;;;4972877;28;20058;-87
2022/06/17 06:02:37;;;;;;;2.75;0.90;;;15.60;99.90;;;;;;4964329;29;20067;-85
2022/06/17 06:05:05;;;;;;;1.88;1.17;;;15.70;99.90;;;;;;4973459;28;20420;-92
2022/06/17 06:07:31;;;;;;;1.65;1.00;;;15.70;99.90;;;;;;4940339;29;20043;-94
2022/06/17 06:10:25;;;;;;;1.55;1.00;;;15.80;99.90;;;;;;4942856;29;20047;-89
2022/06/17 06:13:30;;;;;;;2.30;1.23;;;15.80;99.90;;;;;;4914854;29;20063;-88
2022/06/17 06:15:59;;;;;;;2.17;1.13;;;15.90;99.90;;;;;;4897710;29;20052;-88
2022/06/17 06:18:28;;;;;;;1.75;1.00;;;15.90;99.90;;;;;;4897268;29;20513;-87
2022/06/17 06:20:59;;;;;;;1.08;0.95;;;16.10;99.90;;;;;;4893781;29;20044;-88
2022/06/17 06:23:25;;;;;;;2.53;1.10;;;15.90;99.90;;;;;;4884449;29;20083;-92
2022/06/17 06:26:20;;;;;;;1.75;1.08;;;16.10;99.90;;;;;;4915001;29;20116;-92
2022/06/17 06:40:34;;;;;;;1.95;1.23;;;16.50;99.90;;;;;;4913156;28;20489;-88
2022/06/17 06:43:10;;;;;;;;;;;;;;;;;;;;;
2022/06/17 06:45:54;;;;;;;1.50;1.05;;;16.70;99.90;;;;;;4894186;28;20064;-90
2022/06/17 06:48:25;;;;;;;2.33;1.30;;;16.80;99.90;;;;;;4898767;29;20525;-88
2022/06/17 06:50:53;;;;;;;1.10;1.00;;;16.90;99.90;;;;;;4915505;29;20127;-88
2022/06/17 06:56:05;;;;;;;1.30;0.90;;;17.10;99.90;;;;;;4960112;23;20146;-88
2022/06/17 06:58:58;;;;;;;1.40;1.13;;;17.20;99.90;;;;;;4950467;29;20043;-87
2022/06/17 07:01:35;;;;;;;3.08;1.20;;;17.40;99.90;;;;;;4954776;29;20574;-88
2022/06/17 07:04:17;;;;;;;2.38;1.45;;;17.50;99.90;;;;;;4937888;29;20550;-87
2022/06/17 07:09:32;;;;;;;1.60;0.90;;;17.70;99.90;;;;;;4938692;29;20043;-89
2022/06/17 07:11:57;;;;;;;1.40;1.10;;;17.90;99.90;;;;;;4938134;29;20138;-90
2022/06/17 07:14:26;;;;;;;1.83;1.63;;;18.00;99.90;;;;;;4938575;29;20043;-91
2022/06/17 07:16:52;;;;;;;2.17;1.30;;;18.40;99.90;;;;;;4955285;29;20043;-91
2022/06/17 07:19:19;;;;;;;2.67;1.10;;;18.10;99.90;;;;;;4955477;29;20050;-91
2022/06/17 07:21:45;;;;;;;2.17;1.27;;;18.20;99.90;;;;;;4955511;29;20412;-91
2022/06/17 07:24:11;;;;;;;2.05;1.00;;;18.30;99.90;;;;;;4938071;29;20050;-90
2022/06/17 07:26:37;;;;;;;1.52;1.00;;;18.30;99.90;;;;;;4954068;29;20086;-91
2022/06/17 07:29:02;;;;;;;2.10;1.10;;;18.40;99.90;;;;;;4955263;29;20082;-91
2022/06/17 07:31:28;;;;;;;1.98;1.35;;;18.40;99.90;;;;;;4955311;29;20046;-91
2022/06/17 07:33:56;;;;;;;1.65;1.05;;;18.50;99.90;;;;;;4953813;29;20047;-90
2022/06/17 07:42:00;;;;;;;1.30;0.90;;;18.90;99.90;;;;;;4955611;29;20051;-93
2022/06/17 07:44:26;;;;;;;1.75;0.90;;;18.80;99.90;;;;;;4938144;29;20051;-93
2022/06/17 07:46:52;;;;;;;2.63;1.00;;;19.00;99.90;;;;;;4954450;29;20424;-89
2022/06/17 07:49:18;;;;;;;1.50;1.00;;;19.10;99.90;;;;;;4937467;29;20055;-90
2022/06/17 07:51:44;;;;;;;2.63;1.20;;;19.30;99.90;;;;;;4954807;29;20054;-91
2022/06/17 07:54:09;;;;;;;1.38;1.10;;;19.50;99.90;;;;;;4921098;29;20048;-91
2022/06/17 07:56:35;;;;;;;1.75;0.98;;;19.60;99.90;;;;;;4955063;29;20508;-89
2022/06/17 07:59:01;;;;;;;2.60;0.90;;;19.70;99.90;;;;;;4954647;28;20036;-89
2022/06/17 08:01:27;;;;;;;1.90;1.30;;;19.80;99.90;;;;;;4937407;29;20081;-92
2022/06/17 08:03:53;;;;;;;1.77;1.15;;;19.90;99.90;;;;;;4955291;29;20398;-90
2022/06/17 08:06:18;;;;;;;1.42;1.02;;;20.10;99.90;;;;;;4922010;29;20050;-90
2022/06/17 08:08:45;;;;;;;1.20;0.90;;;20.20;99.90;;;;;;4937360;29;20797;-89
2022/06/17 08:11:12;;;;;;;1.83;1.00;;;20.40;99.90;;;;;;4955203;29;20051;-89
2022/06/17 08:13:38;;;;;;;3.15;1.10;;;20.60;99.90;;;;;;4955057;29;20058;-93
2022/06/17 08:16:06;;;;;;;2.80;1.13;;;20.70;99.90;;;;;;4955018;29;20086;-93
2022/06/17 08:18:38;;;;;;;2.05;1.15;;;20.90;99.90;;;;;;4937836;29;20118;-90
2022/06/17 08:21:05;;;;;;;1.58;1.00;;;21.10;99.90;;;;;;4937649;29;20051;-91
2022/06/17 08:23:31;;;;;;;2.10;0.90;;;21.20;99.90;;;;;;4937271;29;20050;-91
2022/06/17 08:26:01;;;;;;;2.05;1.02;;;21.40;99.90;;;;;;4954809;29;20046;-89
2022/06/17 08:28:26;;;;;;;2.90;1.10;;;21.50;99.90;;;;;;4954504;29;20079;-92
2022/06/17 08:30:56;;;;;;;3.47;1.40;;;21.80;99.90;;;;;;4954778;29;20074;-91
2022/06/17 08:33:27;;;;;;;3.15;1.10;;;21.90;99.90;;;;;;4961622;23;20130;-89
2022/06/17 08:35:55;;;;;;;2.10;1.58;;;22.00;99.90;;;;;;4966523;28;20058;-91
2022/06/17 08:38:26;;;;;;;4.57;2.03;;;22.10;99.90;;;;;;4957102;28;20043;-92
2022/06/17 08:40:56;;;;;;;2.13;1.40;;;22.20;99.90;;;;;;4973986;28;20091;-93
2022/06/17 08:43:43;;;;;;;3.85;1.85;;;22.30;99.90;;;;;;4974486;28;20511;-92
2022/06/17 08:46:20;;;;;;;2.45;1.00;;;22.40;99.90;;;;;;4957112;28;20102;-90
2022/06/17 08:48:55;;;;;;;1.15;0.95;;;22.40;99.90;;;;;;4956897;28;20204;-92
2022/06/17 08:51:59;;;;;;;3.43;1.20;;;22.50;99.90;;;;;;4974333;28;20133;-92
2022/06/17 08:54:52;;;;;;;3.33;1.20;;;22.60;99.90;;;;;;4861760;29;20324;-91
2022/06/17 08:57:26;;;;;;;1.75;1.10;;;22.60;99.90;;;;;;4861848;29;20059;-92
2022/06/17 09:00:06;;;;;;;2.05;1.10;;;22.60;99.90;;;;;;4877367;29;20135;-91
2022/06/17 09:02:59;;;;;;;4.18;1.35;;;22.50;99.90;;;;;;4877336;29;20085;-89
2022/06/17 09:05:58;;;;;;;4.70;1.40;;;22.50;99.90;;;;;;4876818;29;20438;-91
2022/06/17 09:08:29;;;;;;;2.90;1.33;;;22.50;99.90;;;;;;4876887;29;20060;-92
2022/06/17 09:11:13;;;;;;;2.83;1.10;;;22.50;99.90;;;;;;4877953;29;20093;-91
2022/06/17 09:13:53;;;;;;;2.22;1.35;;;22.50;99.90;;;;;;4865444;29;20060;-92
2022/06/17 09:16:34;;;;;;;3.47;1.83;;;22.60;99.90;;;;;;4882108;29;20544;-93
2022/06/17 09:19:02;;;;;;;4.57;1.00;;;22.60;99.90;;;;;;4881936;29;20053;-92
2022/06/17 09:22:02;;;;;;;2.58;1.15;;;22.60;99.90;;;;;;4880303;29;20091;-91
2022/06/17 09:24:36;;;;;;;2.60;1.23;;;22.60;99.90;;;;;;4824855;29;20183;-90
2022/06/17 09:27:09;;;;;;;3.63;1.20;;;22.70;99.90;;;;;;4810106;29;20062;-92
2022/06/17 09:29:53;;;;;;;4.20;1.60;;;22.70;99.90;;;;;;4825184;29;20400;-89
2022/06/17 09:32:37;;;;;;;3.20;1.40;;;22.80;99.90;;;;;;4889567;29;20056;-93
2022/06/17 09:35:25;;;;;;;3.30;1.60;;;22.80;99.90;;;;;;4919827;29;20060;-92
2022/06/17 09:38:17;;;;;;;2.53;1.55;;;22.90;99.90;;;;;;4919013;29;20051;-93
2022/06/17 09:41:11;;;;;;;3.95;1.30;;;23.10;99.90;;;;;;4903392;29;20073;-84
2022/06/17 09:43:43;;;;;;;1.85;1.02;;;23.50;99.90;;;;;;4913068;29;20123;-88
2022/06/17 09:46:16;;;;;;;2.42;1.63;;;23.80;99.90;;;;;;4918145;29;20045;-84
2022/06/17 09:48:44;;;;;;;1.85;1.00;;;24.10;99.90;;;;;;4917767;29;20056;-85
2022/06/17 09:51:26;;;;;;;2.05;1.30;;;24.20;99.90;;;;;;4901839;29;20044;-87
2022/06/17 09:53:59;;;;;;;3.67;1.45;;;24.20;99.90;;;;;;4922735;29;20486;-91
2022/06/17 09:56:46;;;;;;;3.15;1.23;;;24.20;99.90;;;;;;4923370;29;20063;-93
2022/06/17 09:59:36;;;;;;;2.20;1.00;;;24.20;99.60;;;;;;4920265;29;20082;-92
2022/06/17 10:02:23;;;;;;;2.28;0.90;;;24.10;99.90;;;;;;4977481;28;20074;-92
2022/06/17 10:04:53;;;;;;;2.83;1.10;;;24.10;99.90;;;;;;4977244;28;20050;-93
2022/06/17 10:07:41;;;;;;;2.83;1.30;;;24.00;99.90;;;;;;4977082;28;20098;-92
2022/06/17 10:10:28;;;;;;;2.25;0.90;;;23.90;99.90;;;;;;4977128;28;20081;-92
2022/06/17 10:13:06;;;;;;;2.65;1.13;;;23.90;99.90;;;;;;4959508;28;20046;-92
2022/06/17 10:19:02;;;;;;;2.15;1.02;;;23.90;99.90;;;;;;4976763;28;20559;-93
2022/06/17 10:21:45;;;;;;;2.28;1.30;;;23.80;99.90;;;;;;4976750;28;20051;-92
2022/06/17 10:24:29;;;;;;;2.13;1.20;;;23.70;99.90;;;;;;4976880;28;20039;-93
2022/06/17 10:27:08;;;;;;;3.60;1.10;;;23.70;99.90;;;;;;4976974;28;20053;-91
2022/06/17 10:29:58;;;;;;;3.67;1.50;;;23.70;99.90;;;;;;4977462;28;20081;-93
2022/06/17 10:32:26;;;;;;;7.03;1.55;;;23.60;99.90;;;;;;4976779;28;20049;-92
2022/06/17 10:34:55;;;;;;;2.08;1.10;;;23.50;99.90;;;;;;4976247;28;20055;-91
2022/06/17 10:37:21;;;;;;;2.80;1.25;;;23.50;99.90;;;;;;4977217;28;20050;-92
2022/06/17 10:39:47;;;;;;;2.78;1.20;;;23.50;99.90;;;;;;4977026;28;20389;-91
2022/06/17 10:42:17;;;;;;;1.83;1.10;;;23.50;99.90;;;;;;4976382;28;20039;-90
2022/06/17 10:44:49;;;;;;;4.45;1.25;;;23.60;99.90;;;;;;4976056;28;20491;-93
2022/06/17 10:47:43;;;;;;;3.22;1.00;;;23.70;99.90;;;;;;4976059;28;20047;-93
2022/06/17 10:50:19;;;;;;;3.25;1.10;;;23.80;99.90;;;;;;4958593;28;20049;-91
2022/06/17 10:52:56;;;;;;;5.10;2.88;;;23.90;99.90;;;;;;4975809;28;20574;-91
2022/06/17 10:55:31;;;;;;;2.30;1.38;;;24.10;99.90;;;;;;4975943;28;20344;-93
2022/06/17 10:58:04;;;;;;;;;;;24.20;99.90;;;;;;4958944;28;20058;-91
2022/06/17 11:00:32;;;;;;;2.72;1.20;;;24.30;99.90;;;;;;4975811;28;20338;-92
2022/06/17 11:03:14;;;;;;;4.25;1.33;;;24.40;99.90;;;;;;4974869;28;20097;-91
2022/06/17 11:09:25;;;;;;;2.75;1.15;;;24.90;99.00;;;;;;4975855;28;20050;-91
2022/06/17 11:12:10;;;;;;;2.40;1.10;;;25.20;99.30;;;;;;4975917;28;20043;-89
2022/06/17 11:14:41;;;;;;;1.33;0.90;;;25.30;98.00;;;;;;4975374;28;20515;-91
2022/06/17 11:17:21;;;;;;;4.07;1.23;;;25.50;98.20;;;;;;4975335;28;20031;-93
2022/06/17 11:19:58;;;;;;;2.40;0.90;;;25.70;99.00;;;;;;4958092;28;20055;-91
2022/06/17 11:22:30;;;;;;;4.32;0.95;;;26.00;97.10;;;;;;4975078;28;20050;-90
2022/06/17 11:24:59;;;;;;;3.20;1.00;;;26.30;97.60;;;;;;4971577;28;20057;-90
2022/06/17 11:27:35;;;;;;;10.13;1.63;;;26.70;98.20;;;;;;4938902;29;20519;-94
2022/06/17 11:30:24;;;;;;;2.60;1.10;;;26.90;96.20;;;;;;4955936;29;20126;-92
2022/06/17 11:32:50;;;;;;;1.25;1.00;;;27.00;94.20;;;;;;4938306;29;20547;-89
2022/06/17 11:35:37;;;;;;;1.08;0.90;;;27.00;95.90;;;;;;4950409;28;20105;-91
2022/06/17 11:38:13;;;;;;;5.35;1.60;;;27.10;95.90;;;;;;4938408;29;20055;-91
2022/06/17 11:41:05;;;;;;;3.60;1.30;;;27.40;95.20;;;;;;4938441;29;20062;-93
2022/06/17 11:43:38;;;;;;;2.70;1.58;;;27.50;94.10;;;;;;4938119;28;20050;-92
2022/06/17 11:46:15;;;;;;;2.83;1.30;;;27.30;93.70;;;;;;4949877;29;20055;-90
2022/06/17 11:48:44;;;;;;;1.60;1.10;;;27.30;94.00;;;;;;4938335;29;20046;-92
2022/06/17 11:51:14;;;;;;;3.42;0.85;;;27.00;94.50;;;;;;4955309;29;20472;-91
2022/06/17 11:53:53;;;;;;;1.77;1.00;;;26.90;94.10;;;;;;4956675;28;20045;-92
2022/06/17 11:56:40;;;;;;;3.08;0.90;;;26.90;94.80;;;;;;4957159;28;20510;-90
2022/06/17 11:59:24;;;;;;;2.92;1.20;;;27.10;96.00;;;;;;4957542;28;20432;-93
2022/06/17 12:02:07;;;;;;;2.50;1.33;;;27.50;96.20;;;;;;4956526;28;20063;-91
2022/06/17 12:04:43;;;;;;;2.45;1.35;;;27.70;96.00;;;;;;4957401;28;20057;-89
2022/06/17 12:07:45;;;;;;;4.70;1.00;;;27.80;95.80;;;;;;4941504;28;20054;-92
2022/06/17 12:10:29;;;;;;;1.88;1.20;;;27.70;95.10;;;;;;4970205;28;20039;-92
2022/06/17 12:13:18;;;;;;;2.83;1.43;;;27.60;92.70;;;;;;4949674;28;20058;-90
2022/06/17 12:16:13;;;;;;;2.28;1.02;;;27.70;92.10;;;;;;4956991;28;20405;-87
2022/06/17 12:18:46;;;;;;;2.35;1.00;;;27.70;93.40;;;;;;4860969;29;20146;-94
2022/06/17 12:21:22;;;;;;;1.15;0.90;;;27.70;93.10;;;;;;4877684;29;20068;-89
2022/06/17 12:23:50;;;;;;;2.85;0.93;;;27.90;92.10;;;;;;4853452;29;20377;-89
2022/06/17 12:26:48;;;;;;;1.65;0.90;;;28.00;95.20;;;;;;4860258;29;20083;-89
2022/06/17 12:29:33;;;;;;;1.00;0.80;;;28.40;91.90;;;;;;4875797;29;20181;-87
2022/06/17 12:32:04;;;;;;;;;;;28.60;92.90;;;;;;4860199;29;20053;-88
2022/06/17 12:34:43;;;;;;;4.15;1.42;;;28.60;90.40;;;;;;4875481;29;19992;-87
2022/06/17 12:37:30;;;;;;;2.55;1.17;;;28.60;89.10;;;;;;4868159;29;20057;-88
2022/06/17 12:40:28;;;;;;;1.60;0.80;;;28.60;91.60;;;;;;4860685;29;20139;-89
2022/06/17 12:43:31;;;;;;;2.85;1.33;;;28.70;91.20;;;;;;4850175;29;20053;-88
2022/06/17 12:45:56;;;;;;;2.38;1.00;;;28.80;86.30;;;;;;4822363;29;20062;-89
2022/06/17 12:48:41;;;;;;;2.05;0.70;;;28.80;90.30;;;;;;4843313;29;20065;-90
2022/06/17 12:58:15;;;;;;;3.65;0.90;;;28.50;85.70;;;;;;4925557;29;20119;-89
2022/06/17 13:04:13;;;;;;;3.38;0.85;;;28.20;90.40;;;;;;4914983;29;20078;-91
2022/06/17 13:07:03;;;;;;;2.05;0.70;;;28.10;85.30;;;;;;4936694;29;20059;-88
2022/06/17 13:09:46;;;;;;;1.73;0.90;;;27.90;88.20;;;;;;4936765;29;20044;-87
2022/06/17 13:12:33;;;;;;;1.98;0.80;;;27.80;90.60;;;;;;4928920;29;20051;-87
2022/06/17 13:15:05;;;;;;;1.98;0.90;;;27.60;89.00;;;;;;4935154;29;20059;-86
2022/06/17 13:17:57;;;;;;;1.58;0.90;;;27.50;89.80;;;;;;4928508;29;20050;-83
2022/06/17 13:20:40;;;;;;;2.38;1.10;;;27.30;91.00;;;;;;4954169;28;20113;-85
2022/06/17 13:23:34;;;;;;;1.40;1.00;;;27.10;90.80;;;;;;4976677;28;20038;-84
2022/06/17 13:26:06;;;;;;;3.05;1.00;;;27.10;91.90;;;;;;4972738;28;20041;-85
2022/06/17 13:28:45;;;;;;;1.98;1.05;;;27.10;90.90;;;;;;4976351;28;21657;-85
2022/06/17 13:31:39;;;;;;;2.20;1.05;;;27.10;90.80;;;;;;4977413;28;20042;-85
2022/06/17 13:34:23;;;;;;;1.10;0.80;;;27.10;93.30;;;;;;4977041;28;20069;-86
2022/06/17 13:37:27;;;;;;;4.33;0.83;;;27.20;93.70;;;;;;4977261;28;20098;-87
2022/06/17 13:40:15;;;;;;;1.98;1.00;;;27.20;94.30;;;;;;4977222;28;20294;-85
2022/06/17 13:42:41;;;;;;;2.90;1.20;;;27.40;94.10;;;;;;4976917;28;20034;-88
2022/06/17 13:45:36;;;;;;;2.22;1.05;;;27.50;92.70;;;;;;4976998;28;20050;-85
2022/06/17 13:48:11;;;;;;;2.10;0.90;;;27.60;91.90;;;;;;4973068;28;20051;-86
2022/06/17 13:51:00;;;;;;;2.65;1.20;;;27.90;90.90;;;;;;4976686;28;20051;-85
2022/06/17 13:53:34;;;;;;;1.88;0.98;;;28.00;91.70;;;;;;4959724;28;20047;-84
2022/06/17 13:56:14;;;;;;;1.10;1.00;;;28.20;93.30;;;;;;4976957;28;20098;-84
2022/06/17 13:58:45;;;;;;;3.65;0.90;;;28.40;91.80;;;;;;4976644;28;20038;-87
2022/06/17 14:01:28;;;;;;;1.73;1.17;;;28.80;92.60;;;;;;4976654;28;20518;-85
2022/06/17 14:03:53;;;;;;;1.58;0.88;;;29.10;90.00;;;;;;4959336;28;20043;-84
2022/06/17 14:06:21;;;;;;;1.00;0.75;;;29.50;90.20;;;;;;4976726;28;20133;-86
2022/06/17 14:09:25;;;;;;;3.40;1.10;;;29.90;90.10;;;;;;4976613;28;20050;-85
2022/06/17 14:11:51;;;;;;;1.65;0.90;;;30.30;86.50;;;;;;4959086;28;20082;-84
2022/06/17 14:14:19;;;;;;;2.30;0.98;;;30.20;86.00;;;;;;4958908;28;20051;-87
2022/06/17 14:17:00;;;;;;;2.13;0.80;;;29.90;79.60;;;;;;4959013;28;20522;-88